• Join FlightAware (Why Join?)
  • Login
  • US Flag 
11:59PM EDT


 

Airport Tracker/Info


-or-


 

Live Flight TrackerFlight Track Log ✈ SWA876 ✈ 31-Aug-2013 ✈ KMKE - KLGA

Flight Track Log - Related Links

Times and Time Zones

All times are in EDT time to prevent confusion due to time zone crossing. See the SWA876 flight status page for this flight to view local times or setup timezone preferences in your user account.

Time Position Orientation Groundspeed Altitude Reporting Facility
EDT Latitude Longitude Course Direction KTS MPH feet Rate Location/Type
10:41AM 42.9500 -87.8833 90° East 156 180 1,400  Level KMKE
10:42AM 42.9500 -87.8167 90° East 203 234 3,100 1,800 Climbing KMKE
10:44AM 42.9564 -87.6892 86° East 265 305 5,600 2,580 Climbing Chicago Center
10:45AM 42.9572 -87.5764 89° East 296 341 9,300 2,940 Climbing Chicago Center
10:46AM 42.9606 -87.4522 88° East 325 374 11,700 2,700 Climbing Chicago Center
10:47AM 42.9669 -87.3153 86° East 361 415 15,000 3,360 Climbing Chicago Center
10:48AM 42.9761 -87.1436 86° East 377 434 18,600 2,940 Climbing Chicago Center
10:49AM 42.9914 -86.9928 82° East 398 458 21,100 2,280 Climbing Chicago Center
10:50AM 43.0047 -86.8358 83° East 414 476 23,400 2,220 Climbing Chicago Center
10:51AM 43.0189 -86.6722 83° East 432 497 25,700 1,740 Climbing Chicago Center
10:52AM 43.0314 -86.5039 84° East 444 511 27,000 600 Climbing Chicago Center
10:53AM 43.0439 -86.3336 84° East 452 520 27,000  Level Chicago Center
10:54AM 43.0575 -86.1642 84° East 448 516 27,000  Level Chicago Center
10:55AM 43.0692 -85.9864 85° East 451 519 27,000 420 Level Chicago Center
10:56AM 43.0825 -85.8058 84° East 454 522 27,900 1,320 Climbing Chicago Center
10:57AM 43.0944 -85.6333 85° East 454 522 29,800 1,620 Climbing Chicago Center
10:58AM 43.1064 -85.4569 85° East 463 533 31,300 1,740 Climbing Chicago Center
10:59AM 43.1203 -85.2381 85° East 479 551 33,500 1,920 Climbing Chicago Center
11:00AM 43.1331 -85.0583 84° East 478 550 35,400 1,800 Climbing Chicago Center
11:01AM 43.1403 -84.8814 87° East 469 540 37,300 1,560 Climbing Chicago Center
11:02AM 43.1164 -84.7078 101° East 464 534 38,600 780 Climbing Chicago Center
11:03AM 43.0914 -84.5356 101° East 463 533 39,000 180 Climbing Chicago Center
11:04AM 43.0636 -84.3486 101° East 465 535 39,000  Level Cleveland Center
11:05AM 43.0372 -84.1964 103° East 459 528 39,000  Level Cleveland Center
11:06AM 43.0114 -84.0189 101° East 459 528 39,000  Level Cleveland Center
11:07AM 42.9850 -83.8472 102° East 459 528 39,000  Level Cleveland Center
11:08AM 42.9608 -83.6672 100° East 465 535 39,000  Level Cleveland Center
11:09AM 42.9319 -83.4928 103° East 470 541 39,000  Level Cleveland Center
11:10AM 42.9072 -83.3186 101° East 470 541 39,000  Level Cleveland Center
11:11AM 42.8797 -83.1472 102° East 470 541 39,000  Level Cleveland Center
11:12AM 42.8311 -82.9811 112° Southeast 470 541 39,000  Level Cleveland Center
11:13AM 42.7822 -82.8208 113° Southeast 460 529 39,000  Level Cleveland Center
11:14AM 42.7311 -82.6578 113° Southeast 460 529 39,000  Level Cleveland Center
11:15AM 42.6819 -82.4953 112° Southeast 460 529 39,000  Level Cleveland Center
11:16AM 42.6303 -82.3328 113° Southeast 460 529 39,000  Level Cleveland Center
11:17AM 42.5744 -82.1564 113° Southeast 460 529 39,000  Level Cleveland Center
11:18AM 42.5244 -81.9975 113° Southeast 460 529 39,000  Level Cleveland Center
11:19AM 42.4722 -81.8358 114° Southeast 460 529 39,000  Level Cleveland Center
11:20AM 42.4278 -81.6942 113° Southeast 455 524 39,000  Level Cleveland Center
11:21AM 42.3792 -81.5389 113° Southeast 455 524 39,000  Level Cleveland Center
11:22AM 42.3261 -81.3836 115° Southeast 456 525 39,000  Level Cleveland Center
11:23AM 42.2772 -81.2203 112° Southeast 461 531 39,000  Level Cleveland Center
11:24AM 42.2175 -81.0458 115° Southeast 461 531 39,000  Level Cleveland Center
11:25AM 42.1658 -80.8858 113° Southeast 461 531 39,000  Level Cleveland Center
11:26AM 42.1119 -80.7286 115° Southeast 460 529 39,000  Level Cleveland Center
11:27AM 42.0642 -80.5692 112° Southeast 460 529 39,000  Level Cleveland Center
11:28AM 42.0100 -80.4128 115° Southeast 467 537 39,000  Level Cleveland Center
11:29AM 41.9553 -80.2536 115° Southeast 461 531 39,000  Level Cleveland Center
11:30AM 41.9006 -80.0978 115° Southeast 461 531 39,000  Level Cleveland Center
11:31AM 41.8561 -79.9586 113° Southeast 456 525 39,000  Level Cleveland Center
11:32AM 41.7969 -79.8006 117° Southeast 464 534 39,000  Level Cleveland Center
11:33AM 41.7456 -79.6453 114° Southeast 464 534 39,000  Level Cleveland Center
11:34AM 41.6878 -79.4736 114° Southeast 459 528 39,000  Level Cleveland Center
11:35AM 41.6319 -79.3164 115° Southeast 464 534 39,000  Level Cleveland Center
11:36AM 41.5781 -79.1592 115° Southeast 464 534 39,000  Level Cleveland Center
11:37AM 41.5217 -78.9994 115° Southeast 464 534 39,000  Level Cleveland Center
11:38AM 41.4672 -78.8428 115° Southeast 464 534 39,000  Level Cleveland Center
11:39AM 41.4106 -78.6839 115° Southeast 464 534 39,000  Level Cleveland Center
11:40AM 41.3603 -78.5414 115° Southeast 464 534 39,000 -1,560 Level Cleveland Center
11:42AM 41.2597 -78.2650 116° Southeast 459 528 34,900 -2,280 Descending New York Center
11:43AM 41.2097 -78.0994 112° Southeast 470 541 33,000 -960 Descending New York Center
11:44AM 41.1856 -77.9175 100° East 481 554 33,000  Level New York Center
11:45AM 41.1631 -77.7303 99° East 505 581 33,000  Level New York Center
11:46AM 41.1386 -77.5431 100° East 510 587 33,000  Level New York Center
11:47AM 41.1136 -77.3589 100° East 510 587 33,000 -600 Level New York Center
11:48AM 41.0883 -77.1747 100° East 510 587 31,900 -1,440 Descending New York Center
11:49AM 41.0642 -77.0017 100° East 500 575 30,200 -2,100 Descending New York Center
11:50AM 41.0439 -76.8292 99° East 486 559 27,800 -2,340 Descending New York Center
11:51AM 41.0208 -76.6647 100° East 466 536 25,600 -2,280 Descending New York Center
11:52AM 40.9825 -76.5131 108° East 445 512 23,300 -2,340 Descending New York Center
11:53AM 40.9478 -76.3672 107° East 427 491 21,000 -1,740 Descending New York Center
11:54AM 40.9147 -76.2300 108° East 414 476 19,900 -1,320 Descending New York Center
11:55AM 40.8833 -76.0956 107° East 385 443 18,400 -1,500 Descending New York Center
11:56AM 40.8589 -75.9867 106° East 385 443 17,000 -2,040 Descending New York Center
11:57AM 40.8219 -75.8331 108° East 391 450 14,400 -1,980 Descending New York Center
11:58AM 40.7861 -75.6961 109° East 391 450 13,100 -720 Descending New York Center
11:59AM 40.7506 -75.5456 107° East 391 450 13,000 -60 Descending New York Center
12:00PM 40.7058 -75.4139 114° Southeast 391 450 13,000  Level New York Center
12:01PM 40.6608 -75.2794 114° Southeast 396 456 13,000 -420 Level New York Center
12:02PM 40.6178 -75.1564 115° Southeast 390 449 12,200 -1,440 Descending New York Center
12:03PM 40.5781 -75.0392 114° Southeast 361 415 10,200 -1,140 Descending New York Center
12:04PM 40.5428 -74.9222 112° Southeast 349 402 10,000 -60 Descending New York Center
12:05PM 40.5167 -74.8167 108° East 338 389 10,100  Climbing New York TRACON
12:06PM 40.4833 -74.7000 111° Southeast 341 392 10,100  Level New York TRACON
12:07PM 40.4333 -74.5667 116° Southeast 346 398 10,100  Level New York TRACON
12:08PM 40.4500 -74.4500 79° East 345 397 10,100  Level New York TRACON
12:09PM 40.4833 -74.3333 69° East 345 397 10,100 -420 Level New York TRACON
12:10PM 40.5167 -74.2333 66° East 315 362 9,400 -1,200 Descending New York TRACON
12:11PM 40.5333 -74.1167 79° East 314 361 7,800 -1,680 Descending New York TRACON
12:12PM 40.5833 -74.0333 52° Northeast 301 346 6,100 -1,560 Descending New York TRACON
12:13PM 40.6667 -73.9667 31° Northeast 293 337 4,700 -1,020 Descending New York TRACON
12:14PM 40.7167 -73.9000 45° Northeast 291 335 4,100 -300 Descending New York TRACON
12:15PM 40.7833 -73.8167 43° Northeast 281 323 4,100 -120 Level New York TRACON
12:16PM 40.8000 -73.7500 72° East 230 265 3,900 -600 Descending New York TRACON
12:17PM 40.7833 -73.6667 105° East 209 241 3,000 -900 Descending New York TRACON
12:18PM 40.7500 -73.6667 180° South 177 204 2,100 -480 Descending New York TRACON
12:19PM 40.7000 -73.6833 194° South 176 203 2,100 -180 Level New York TRACON
12:20PM 40.7167 -73.7500 288° West 163 188 1,800 -420 Descending New York TRACON
12:21PM 40.7333 -73.8000 294° West 146 168 1,300 -660 Descending New York TRACON
12:22PM 40.7667 -73.8333 323° Northwest 135 155 500 -840 Descending New York TRACON
12:24PM 40.7667 -73.8667 276° West  Level FlightAware Approximate